sensor_id;sensor_type;location;lat;lon;timestamp;temperature;humidity
16229;DHT22;8222;51.462;12.630;2023-04-24T00:00:58;14.70;99.90
16229;DHT22;8222;51.462;12.630;2023-04-24T00:03:26;14.70;99.90
16229;DHT22;8222;51.462;12.630;2023-04-24T00:05:53;14.60;99.90
16229;DHT22;8222;51.462;12.630;2023-04-24T00:08:21;14.60;99.90
16229;DHT22;8222;51.462;12.630;2023-04-24T00:10:51;14.60;99.90
16229;DHT22;8222;51.462;12.630;2023-04-24T00:13:20;14.60;99.90
16229;DHT22;8222;51.462;12.630;2023-04-24T00:15:46;14.60;99.90
16229;DHT22;8222;51.462;12.630;2023-04-24T00:18:12;14.60;99.90
16229;DHT22;8222;51.462;12.630;2023-04-24T00:20:37;14.60;99.90
16229;DHT22;8222;51.462;12.630;2023-04-24T00:23:03;14.60;99.90
16229;DHT22;8222;51.462;12.630;2023-04-24T00:25:29;14.70;99.90
16229;DHT22;8222;51.462;12.630;2023-04-24T00:27:54;14.70;99.90
16229;DHT22;8222;51.462;12.630;2023-04-24T00:30:20;14.80;99.90
16229;DHT22;8222;51.462;12.630;2023-04-24T00:32:46;14.80;99.90
16229;DHT22;8222;51.462;12.630;2023-04-24T00:35:12;14.80;99.90
16229;DHT22;8222;51.462;12.630;2023-04-24T00:37:37;14.70;99.90
16229;DHT22;8222;51.462;12.630;2023-04-24T00:40:03;14.70;99.90
16229;DHT22;8222;51.462;12.630;2023-04-24T00:42:29;14.70;99.90
16229;DHT22;8222;51.462;12.630;2023-04-24T00:44:58;14.80;99.90
16229;DHT22;8222;51.462;12.630;2023-04-24T00:47:24;14.80;99.90
16229;DHT22;8222;51.462;12.630;2023-04-24T00:49:53;14.80;99.90
16229;DHT22;8222;51.462;12.630;2023-04-24T00:52:21;14.70;99.90
16229;DHT22;8222;51.462;12.630;2023-04-24T00:54:52;14.70;99.90
16229;DHT22;8222;51.462;12.630;2023-04-24T00:57:18;14.70;99.90
16229;DHT22;8222;51.462;12.630;2023-04-24T00:59:44;14.80;99.90
16229;DHT22;8222;51.462;12.630;2023-04-24T01:02:11;14.70;99.90
16229;DHT22;8222;51.462;12.630;2023-04-24T01:04:37;14.70;99.90
16229;DHT22;8222;51.462;12.630;2023-04-24T01:07:04;14.70;99.90
16229;DHT22;8222;51.462;12.630;2023-04-24T01:09:39;14.70;99.90
16229;DHT22;8222;51.462;12.630;2023-04-24T01:12:07;14.70;99.90
16229;DHT22;8222;51.462;12.630;2023-04-24T01:14:37;14.70;99.90
16229;DHT22;8222;51.462;12.630;2023-04-24T01:17:06;14.70;99.90
16229;DHT22;8222;51.462;12.630;2023-04-24T01:19:32;14.70;99.90
16229;DHT22;8222;51.462;12.630;2023-04-24T01:22:02;14.60;99.90
16229;DHT22;8222;51.462;12.630;2023-04-24T01:24:28;14.50;99.90
16229;DHT22;8222;51.462;12.630;2023-04-24T01:26:54;14.50;99.90
16229;DHT22;8222;51.462;12.630;2023-04-24T01:29:20;14.40;99.90
16229;DHT22;8222;51.462;12.630;2023-04-24T01:31:46;14.30;99.90
16229;DHT22;8222;51.462;12.630;2023-04-24T01:34:14;14.30;99.90
16229;DHT22;8222;51.462;12.630;2023-04-24T01:36:44;14.20;99.90
16229;DHT22;8222;51.462;12.630;2023-04-24T01:39:11;14.20;99.90
16229;DHT22;8222;51.462;12.630;2023-04-24T01:41:37;14.20;99.90
16229;DHT22;8222;51.462;12.630;2023-04-24T01:44:03;14.10;99.90
16229;DHT22;8222;51.462;12.630;2023-04-24T01:46:29;14.10;99.90
16229;DHT22;8222;51.462;12.630;2023-04-24T01:48:58;14.10;99.90
16229;DHT22;8222;51.462;12.630;2023-04-24T01:51:25;14.20;99.90
16229;DHT22;8222;51.462;12.630;2023-04-24T01:53:50;14.20;99.90
16229;DHT22;8222;51.462;12.630;2023-04-24T01:56:16;14.20;99.90
16229;DHT22;8222;51.462;12.630;2023-04-24T01:58:45;14.10;99.90
16229;DHT22;8222;51.462;12.630;2023-04-24T02:01:20;14.20;99.90
16229;DHT22;8222;51.462;12.630;2023-04-24T02:03:46;14.10;99.90
16229;DHT22;8222;51.462;12.630;2023-04-24T02:06:12;14.00;99.90
16229;DHT22;8222;51.462;12.630;2023-04-24T02:08:40;14.00;99.90
16229;DHT22;8222;51.462;12.630;2023-04-24T02:11:10;14.00;99.90
16229;DHT22;8222;51.462;12.630;2023-04-24T02:13:38;13.90;99.90
16229;DHT22;8222;51.462;12.630;2023-04-24T02:16:04;13.90;99.90
16229;DHT22;8222;51.462;12.630;2023-04-24T02:18:32;13.90;99.90
16229;DHT22;8222;51.462;12.630;2023-04-24T02:21:00;13.90;99.90
16229;DHT22;8222;51.462;12.630;2023-04-24T02:23:25;14.00;99.90
16229;DHT22;8222;51.462;12.630;2023-04-24T02:25:52;13.90;99.90
16229;DHT22;8222;51.462;12.630;2023-04-24T02:28:21;13.80;99.90
16229;DHT22;8222;51.462;12.630;2023-04-24T02:30:46;13.80;99.90
16229;DHT22;8222;51.462;12.630;2023-04-24T02:33:12;13.90;99.90
16229;DHT22;8222;51.462;12.630;2023-04-24T02:35:38;13.80;99.90
16229;DHT22;8222;51.462;12.630;2023-04-24T02:38:04;13.80;99.90
16229;DHT22;8222;51.462;12.630;2023-04-24T02:40:33;13.70;99.90
16229;DHT22;8222;51.462;12.630;2023-04-24T02:42:58;13.60;99.90
16229;DHT22;8222;51.462;12.630;2023-04-24T02:45:24;13.50;99.90
16229;DHT22;8222;51.462;12.630;2023-04-24T02:47:55;13.60;99.90
16229;DHT22;8222;51.462;12.630;2023-04-24T02:50:20;13.50;99.90
16229;DHT22;8222;51.462;12.630;2023-04-24T02:52:49;13.50;99.90
16229;DHT22;8222;51.462;12.630;2023-04-24T02:55:14;13.40;99.90
16229;DHT22;8222;51.462;12.630;2023-04-24T02:57:42;13.50;99.90
16229;DHT22;8222;51.462;12.630;2023-04-24T03:00:11;13.50;99.90
16229;DHT22;8222;51.462;12.630;2023-04-24T03:02:37;13.50;99.90
16229;DHT22;8222;51.462;12.630;2023-04-24T03:05:03;13.50;99.90
16229;DHT22;8222;51.462;12.630;2023-04-24T03:07:29;13.40;99.90
16229;DHT22;8222;51.462;12.630;2023-04-24T03:09:59;13.30;99.90
16229;DHT22;8222;51.462;12.630;2023-04-24T03:12:24;13.30;99.90
16229;DHT22;8222;51.462;12.630;2023-04-24T03:14:50;13.30;99.90
16229;DHT22;8222;51.462;12.630;2023-04-24T03:17:16;13.30;99.90
16229;DHT22;8222;51.462;12.630;2023-04-24T03:19:44;13.30;99.90
16229;DHT22;8222;51.462;12.630;2023-04-24T03:22:12;13.40;99.90
16229;DHT22;8222;51.462;12.630;2023-04-24T03:24:40;13.30;99.90
16229;DHT22;8222;51.462;12.630;2023-04-24T03:27:08;13.40;99.90
16229;DHT22;8222;51.462;12.630;2023-04-24T03:29:34;13.30;99.90
16229;DHT22;8222;51.462;12.630;2023-04-24T03:32:03;13.30;99.90
16229;DHT22;8222;51.462;12.630;2023-04-24T03:34:29;13.20;99.90
16229;DHT22;8222;51.462;12.630;2023-04-24T03:36:59;13.20;99.90
16229;DHT22;8222;51.462;12.630;2023-04-24T03:39:25;13.30;99.90
16229;DHT22;8222;51.462;12.630;2023-04-24T03:41:50;13.30;99.90
16229;DHT22;8222;51.462;12.630;2023-04-24T03:44:16;13.20;99.90
16229;DHT22;8222;51.462;12.630;2023-04-24T03:46:44;13.30;99.90
16229;DHT22;8222;51.462;12.630;2023-04-24T03:49:12;13.40;99.90
16229;DHT22;8222;51.462;12.630;2023-04-24T03:51:38;13.40;99.90
16229;DHT22;8222;51.462;12.630;2023-04-24T03:54:03;13.30;99.90
16229;DHT22;8222;51.462;12.630;2023-04-24T03:56:32;13.90;99.90
16229;DHT22;8222;51.462;12.630;2023-04-24T03:58:57;13.40;99.90
16229;DHT22;8222;51.462;12.630;2023-04-24T04:01:23;13.40;99.90
16229;DHT22;8222;51.462;12.630;2023-04-24T04:03:49;13.40;99.90
16229;DHT22;8222;51.462;12.630;2023-04-24T04:06:18;13.50;99.90
16229;DHT22;8222;51.462;12.630;2023-04-24T04:08:44;13.50;99.90
16229;DHT22;8222;51.462;12.630;2023-04-24T04:11:10;13.50;99.90
16229;DHT22;8222;51.462;12.630;2023-04-24T04:13:36;13.40;99.90
16229;DHT22;8222;51.462;12.630;2023-04-24T04:16:01;13.40;99.90
16229;DHT22;8222;51.462;12.630;2023-04-24T04:18:27;13.50;99.90
16229;DHT22;8222;51.462;12.630;2023-04-24T04:20:55;13.40;99.90
16229;DHT22;8222;51.462;12.630;2023-04-24T04:23:22;13.30;99.90
16229;DHT22;8222;51.462;12.630;2023-04-24T04:25:53;13.20;99.90
16229;DHT22;8222;51.462;12.630;2023-04-24T04:28:21;13.20;99.90
16229;DHT22;8222;51.462;12.630;2023-04-24T04:30:49;13.10;99.90
16229;DHT22;8222;51.462;12.630;2023-04-24T04:33:14;13.10;99.90
16229;DHT22;8222;51.462;12.630;2023-04-24T04:35:40;13.10;99.90
16229;DHT22;8222;51.462;12.630;2023-04-24T04:38:12;13.00;99.90
16229;DHT22;8222;51.462;12.630;2023-04-24T04:40:37;13.00;99.90
16229;DHT22;8222;51.462;12.630;2023-04-24T04:43:03;13.00;99.90
16229;DHT22;8222;51.462;12.630;2023-04-24T04:45:29;13.10;99.90
16229;DHT22;8222;51.462;12.630;2023-04-24T04:47:58;13.20;99.90
16229;DHT22;8222;51.462;12.630;2023-04-24T04:50:27;13.20;99.90
16229;DHT22;8222;51.462;12.630;2023-04-24T04:52:58;13.20;99.90
16229;DHT22;8222;51.462;12.630;2023-04-24T04:55:26;13.30;99.90
16229;DHT22;8222;51.462;12.630;2023-04-24T04:57:52;13.30;99.90
16229;DHT22;8222;51.462;12.630;2023-04-24T05:00:18;13.30;99.90
16229;DHT22;8222;51.462;12.630;2023-04-24T05:02:46;13.40;99.90
16229;DHT22;8222;51.462;12.630;2023-04-24T05:05:12;13.60;99.90
16229;DHT22;8222;51.462;12.630;2023-04-24T05:07:37;13.60;99.90
16229;DHT22;8222;51.462;12.630;2023-04-24T05:10:03;13.60;99.90
16229;DHT22;8222;51.462;12.630;2023-04-24T05:12:29;13.80;99.90
16229;DHT22;8222;51.462;12.630;2023-04-24T05:14:55;13.80;99.90
16229;DHT22;8222;51.462;12.630;2023-04-24T05:17:23;13.80;99.90
16229;DHT22;8222;51.462;12.630;2023-04-24T05:19:51;13.80;99.90
16229;DHT22;8222;51.462;12.630;2023-04-24T05:22:17;13.80;99.90
16229;DHT22;8222;51.462;12.630;2023-04-24T05:24:46;13.80;99.90
16229;DHT22;8222;51.462;12.630;2023-04-24T05:27:14;13.90;99.90
16229;DHT22;8222;51.462;12.630;2023-04-24T05:29:40;14.00;99.90
16229;DHT22;8222;51.462;12.630;2023-04-24T05:32:10;14.10;99.90
16229;DHT22;8222;51.462;12.630;2023-04-24T05:34:36;14.40;99.90
16229;DHT22;8222;51.462;12.630;2023-04-24T05:37:02;14.40;99.90
16229;DHT22;8222;51.462;12.630;2023-04-24T05:39:31;14.40;99.90
16229;DHT22;8222;51.462;12.630;2023-04-24T05:41:56;14.50;99.90
16229;DHT22;8222;51.462;12.630;2023-04-24T05:44:23;14.60;99.90
16229;DHT22;8222;51.462;12.630;2023-04-24T05:46:49;14.70;99.90
16229;DHT22;8222;51.462;12.630;2023-04-24T05:49:15;14.80;99.90
16229;DHT22;8222;51.462;12.630;2023-04-24T05:51:43;14.90;99.90
16229;DHT22;8222;51.462;12.630;2023-04-24T05:54:08;15.00;99.90
16229;DHT22;8222;51.462;12.630;2023-04-24T05:56:37;15.30;99.90
16229;DHT22;8222;51.462;12.630;2023-04-24T05:59:05;15.40;99.90
16229;DHT22;8222;51.462;12.630;2023-04-24T06:01:31;15.50;99.90
16229;DHT22;8222;51.462;12.630;2023-04-24T06:03:58;15.60;99.90
16229;DHT22;8222;51.462;12.630;2023-04-24T06:06:25;15.70;99.90
16229;DHT22;8222;51.462;12.630;2023-04-24T06:08:52;15.80;99.90
16229;DHT22;8222;51.462;12.630;2023-04-24T06:11:21;15.80;99.90
16229;DHT22;8222;51.462;12.630;2023-04-24T06:13:50;15.90;99.90
16229;DHT22;8222;51.462;12.630;2023-04-24T06:16:15;16.00;99.90
16229;DHT22;8222;51.462;12.630;2023-04-24T06:18:41;16.20;99.90
16229;DHT22;8222;51.462;12.630;2023-04-24T06:21:07;16.20;99.90
16229;DHT22;8222;51.462;12.630;2023-04-24T06:23:32;16.10;99.90
16229;DHT22;8222;51.462;12.630;2023-04-24T06:25:59;16.00;99.90
16229;DHT22;8222;51.462;12.630;2023-04-24T06:28:29;16.10;99.90
16229;DHT22;8222;51.462;12.630;2023-04-24T06:30:55;16.20;99.90
16229;DHT22;8222;51.462;12.630;2023-04-24T06:33:26;16.20;99.90
16229;DHT22;8222;51.462;12.630;2023-04-24T06:35:54;16.30;99.90
16229;DHT22;8222;51.462;12.630;2023-04-24T06:38:20;16.40;99.90
16229;DHT22;8222;51.462;12.630;2023-04-24T06:40:46;16.40;99.90
16229;DHT22;8222;51.462;12.630;2023-04-24T06:43:16;16.40;99.90
16229;DHT22;8222;51.462;12.630;2023-04-24T06:45:47;16.40;99.90
16229;DHT22;8222;51.462;12.630;2023-04-24T06:48:13;16.50;99.90
16229;DHT22;8222;51.462;12.630;2023-04-24T06:50:38;16.50;99.90
16229;DHT22;8222;51.462;12.630;2023-04-24T06:53:09;16.50;99.90
16229;DHT22;8222;51.462;12.630;2023-04-24T06:55:38;16.70;99.90
16229;DHT22;8222;51.462;12.630;2023-04-24T06:58:06;16.70;99.90
16229;DHT22;8222;51.462;12.630;2023-04-24T07:00:32;16.70;99.90
16229;DHT22;8222;51.462;12.630;2023-04-24T07:02:58;16.60;99.90
16229;DHT22;8222;51.462;12.630;2023-04-24T07:05:24;16.60;99.90
16229;DHT22;8222;51.462;12.630;2023-04-24T07:07:51;16.50;99.90
16229;DHT22;8222;51.462;12.630;2023-04-24T07:10:22;16.50;99.90
16229;DHT22;8222;51.462;12.630;2023-04-24T07:12:48;16.60;99.90
16229;DHT22;8222;51.462;12.630;2023-04-24T07:15:14;16.60;99.90
16229;DHT22;8222;51.462;12.630;2023-04-24T07:17:39;16.60;99.90
16229;DHT22;8222;51.462;12.630;2023-04-24T07:20:09;16.70;99.90
16229;DHT22;8222;51.462;12.630;2023-04-24T07:22:38;16.90;99.90
16229;DHT22;8222;51.462;12.630;2023-04-24T07:25:07;16.90;99.90
16229;DHT22;8222;51.462;12.630;2023-04-24T07:27:38;16.90;99.90
16229;DHT22;8222;51.462;12.630;2023-04-24T07:30:04;16.90;99.90
16229;DHT22;8222;51.462;12.630;2023-04-24T07:32:30;16.90;99.90
16229;DHT22;8222;51.462;12.630;2023-04-24T07:34:56;16.90;99.90
16229;DHT22;8222;51.462;12.630;2023-04-24T07:37:22;17.10;99.90
16229;DHT22;8222;51.462;12.630;2023-04-24T07:39:50;17.20;99.90
16229;DHT22;8222;51.462;12.630;2023-04-24T07:42:16;17.20;99.90
16229;DHT22;8222;51.462;12.630;2023-04-24T07:44:42;17.30;99.90
16229;DHT22;8222;51.462;12.630;2023-04-24T07:47:10;17.20;99.90
16229;DHT22;8222;51.462;12.630;2023-04-24T07:49:38;17.30;99.90
16229;DHT22;8222;51.462;12.630;2023-04-24T07:52:05;17.30;99.90
16229;DHT22;8222;51.462;12.630;2023-04-24T07:54:31;17.40;99.90
16229;DHT22;8222;51.462;12.630;2023-04-24T07:56:57;17.50;99.90
16229;DHT22;8222;51.462;12.630;2023-04-24T07:59:22;17.60;99.90
16229;DHT22;8222;51.462;12.630;2023-04-24T08:01:50;17.60;99.90
16229;DHT22;8222;51.462;12.630;2023-04-24T08:04:16;17.70;99.90
16229;DHT22;8222;51.462;12.630;2023-04-24T08:06:47;17.90;99.90
16229;DHT22;8222;51.462;12.630;2023-04-24T08:09:13;18.10;99.90
16229;DHT22;8222;51.462;12.630;2023-04-24T08:11:38;18.10;99.90
16229;DHT22;8222;51.462;12.630;2023-04-24T08:14:07;18.20;99.90
16229;DHT22;8222;51.462;12.630;2023-04-24T08:16:33;18.40;99.90
16229;DHT22;8222;51.462;12.630;2023-04-24T08:19:01;18.40;99.90
16229;DHT22;8222;51.462;12.630;2023-04-24T08:21:29;18.30;99.90
16229;DHT22;8222;51.462;12.630;2023-04-24T08:23:58;18.20;99.90
16229;DHT22;8222;51.462;12.630;2023-04-24T08:26:23;18.10;99.90
16229;DHT22;8222;51.462;12.630;2023-04-24T08:28:52;18.20;99.90
16229;DHT22;8222;51.462;12.630;2023-04-24T08:31:20;18.30;99.90
16229;DHT22;8222;51.462;12.630;2023-04-24T08:33:48;18.20;99.90
16229;DHT22;8222;51.462;12.630;2023-04-24T08:36:13;18.10;99.90
16229;DHT22;8222;51.462;12.630;2023-04-24T08:38:39;18.20;99.90
16229;DHT22;8222;51.462;12.630;2023-04-24T08:41:05;18.20;99.90
16229;DHT22;8222;51.462;12.630;2023-04-24T08:43:33;18.20;99.90
16229;DHT22;8222;51.462;12.630;2023-04-24T08:46:03;18.10;99.90
16229;DHT22;8222;51.462;12.630;2023-04-24T08:48:29;18.20;99.90
16229;DHT22;8222;51.462;12.630;2023-04-24T08:50:57;18.30;99.90
16229;DHT22;8222;51.462;12.630;2023-04-24T08:53:26;18.30;99.90
16229;DHT22;8222;51.462;12.630;2023-04-24T08:55:54;18.50;99.90
16229;DHT22;8222;51.462;12.630;2023-04-24T08:58:24;18.60;99.90
16229;DHT22;8222;51.462;12.630;2023-04-24T09:00:56;18.50;99.90
16229;DHT22;8222;51.462;12.630;2023-04-24T09:03:27;18.60;99.90
16229;DHT22;8222;51.462;12.630;2023-04-24T09:05:59;18.60;99.90
16229;DHT22;8222;51.462;12.630;2023-04-24T09:08:28;18.50;99.90
16229;DHT22;8222;51.462;12.630;2023-04-24T09:10:57;18.60;99.90
16229;DHT22;8222;51.462;12.630;2023-04-24T09:13:28;18.50;99.90
16229;DHT22;8222;51.462;12.630;2023-04-24T09:15:56;18.50;99.90
16229;DHT22;8222;51.462;12.630;2023-04-24T09:18:23;18.50;99.90
16229;DHT22;8222;51.462;12.630;2023-04-24T09:21:03;18.40;99.90
16229;DHT22;8222;51.462;12.630;2023-04-24T09:23:34;18.70;99.90
16229;DHT22;8222;51.462;12.630;2023-04-24T09:26:02;19.00;99.90
16229;DHT22;8222;51.462;12.630;2023-04-24T09:28:40;19.30;99.90
16229;DHT22;8222;51.462;12.630;2023-04-24T09:33:32;19.80;99.90
16229;DHT22;8222;51.462;12.630;2023-04-24T09:36:00;19.70;99.90
16229;DHT22;8222;51.462;12.630;2023-04-24T09:38:37;19.50;99.90
16229;DHT22;8222;51.462;12.630;2023-04-24T09:41:06;19.20;99.90
16229;DHT22;8222;51.462;12.630;2023-04-24T09:43:33;19.10;99.90
16229;DHT22;8222;51.462;12.630;2023-04-24T09:46:08;18.80;99.90
16229;DHT22;8222;51.462;12.630;2023-04-24T09:48:39;18.80;99.90
16229;DHT22;8222;51.462;12.630;2023-04-24T09:51:08;18.70;99.90
16229;DHT22;8222;51.462;12.630;2023-04-24T09:53:36;18.50;99.90
16229;DHT22;8222;51.462;12.630;2023-04-24T09:56:09;18.40;99.90
16229;DHT22;8222;51.462;12.630;2023-04-24T09:58:36;18.30;99.90
16229;DHT22;8222;51.462;12.630;2023-04-24T10:01:09;18.30;99.90
16229;DHT22;8222;51.462;12.630;2023-04-24T10:03:35;18.40;99.90
16229;DHT22;8222;51.462;12.630;2023-04-24T10:06:04;18.30;99.90
16229;DHT22;8222;51.462;12.630;2023-04-24T10:08:36;18.50;99.90
16229;DHT22;8222;51.462;12.630;2023-04-24T10:11:02;18.60;99.90
16229;DHT22;8222;51.462;12.630;2023-04-24T10:13:28;18.60;99.90
16229;DHT22;8222;51.462;12.630;2023-04-24T10:15:57;18.60;99.90
16229;DHT22;8222;51.462;12.630;2023-04-24T10:18:33;18.60;99.90
16229;DHT22;8222;51.462;12.630;2023-04-24T10:21:00;18.60;99.90
16229;DHT22;8222;51.462;12.630;2023-04-24T10:23:26;18.70;99.90
16229;DHT22;8222;51.462;12.630;2023-04-24T10:25:55;18.80;99.90
16229;DHT22;8222;51.462;12.630;2023-04-24T10:28:21;18.70;99.90
16229;DHT22;8222;51.462;12.630;2023-04-24T10:30:47;18.80;99.90
16229;DHT22;8222;51.462;12.630;2023-04-24T10:33:13;19.10;99.90
16229;DHT22;8222;51.462;12.630;2023-04-24T10:35:45;19.10;99.90
16229;DHT22;8222;51.462;12.630;2023-04-24T10:38:22;19.10;99.90
16229;DHT22;8222;51.462;12.630;2023-04-24T10:40:50;19.00;99.90
16229;DHT22;8222;51.462;12.630;2023-04-24T10:43:19;19.30;99.90
16229;DHT22;8222;51.462;12.630;2023-04-24T10:46:05;19.60;99.90
16229;DHT22;8222;51.462;12.630;2023-04-24T10:48:32;19.80;99.90
16229;DHT22;8222;51.462;12.630;2023-04-24T10:50:58;19.70;99.90
16229;DHT22;8222;51.462;12.630;2023-04-24T10:53:28;19.80;99.90
16229;DHT22;8222;51.462;12.630;2023-04-24T10:56:07;19.50;99.90
16229;DHT22;8222;51.462;12.630;2023-04-24T10:58:59;19.30;99.90
16229;DHT22;8222;51.462;12.630;2023-04-24T11:01:28;19.20;99.90
16229;DHT22;8222;51.462;12.630;2023-04-24T11:04:04;19.30;99.90
16229;DHT22;8222;51.462;12.630;2023-04-24T11:06:34;19.70;99.90
16229;DHT22;8222;51.462;12.630;2023-04-24T11:09:09;19.70;99.90
16229;DHT22;8222;51.462;12.630;2023-04-24T11:11:38;19.70;99.90
16229;DHT22;8222;51.462;12.630;2023-04-24T11:14:07;19.50;99.90
16229;DHT22;8222;51.462;12.630;2023-04-24T11:16:45;19.10;99.90
16229;DHT22;8222;51.462;12.630;2023-04-24T11:21:47;18.60;99.90
16229;DHT22;8222;51.462;12.630;2023-04-24T11:27:23;18.90;99.90
16229;DHT22;8222;51.462;12.630;2023-04-24T11:32:24;19.40;99.30
16229;DHT22;8222;51.462;12.630;2023-04-24T11:34:53;19.50;93.60
16229;DHT22;8222;51.462;12.630;2023-04-24T11:37:36;19.40;94.70
16229;DHT22;8222;51.462;12.630;2023-04-24T11:40:06;19.50;97.10
16229;DHT22;8222;51.462;12.630;2023-04-24T11:42:42;19.50;94.00
16229;DHT22;8222;51.462;12.630;2023-04-24T11:45:12;19.60;91.50
16229;DHT22;8222;51.462;12.630;2023-04-24T11:47:42;19.80;94.20
16229;DHT22;8222;51.462;12.630;2023-04-24T11:50:10;20.30;94.60
16229;DHT22;8222;51.462;12.630;2023-04-24T11:52:41;20.10;85.40
16229;DHT22;8222;51.462;12.630;2023-04-24T11:55:22;20.10;85.80
16229;DHT22;8222;51.462;12.630;2023-04-24T11:57:50;20.10;83.70
16229;DHT22;8222;51.462;12.630;2023-04-24T12:00:22;20.00;84.80
16229;DHT22;8222;51.462;12.630;2023-04-24T12:02:51;19.60;86.00
16229;DHT22;8222;51.462;12.630;2023-04-24T12:05:20;19.50;85.60
16229;DHT22;8222;51.462;12.630;2023-04-24T12:07:46;19.70;83.50
16229;DHT22;8222;51.462;12.630;2023-04-24T12:10:12;20.00;86.10
16229;DHT22;8222;51.462;12.630;2023-04-24T12:12:37;20.30;86.40
16229;DHT22;8222;51.462;12.630;2023-04-24T12:15:09;20.20;82.80
16229;DHT22;8222;51.462;12.630;2023-04-24T12:17:35;20.30;86.00
16229;DHT22;8222;51.462;12.630;2023-04-24T12:20:06;19.90;83.30
16229;DHT22;8222;51.462;12.630;2023-04-24T12:22:51;19.90;89.40
16229;DHT22;8222;51.462;12.630;2023-04-24T12:25:25;20.10;87.90
16229;DHT22;8222;51.462;12.630;2023-04-24T12:30:43;19.90;81.90
16229;DHT22;8222;51.462;12.630;2023-04-24T12:33:21;19.60;82.50
16229;DHT22;8222;51.462;12.630;2023-04-24T12:35:52;19.50;87.60
16229;DHT22;8222;51.462;12.630;2023-04-24T12:38:25;19.50;84.30
16229;DHT22;8222;51.462;12.630;2023-04-24T12:41:05;19.70;86.30
16229;DHT22;8222;51.462;12.630;2023-04-24T12:43:31;19.80;83.80
16229;DHT22;8222;51.462;12.630;2023-04-24T12:45:59;19.80;83.10
16229;DHT22;8222;51.462;12.630;2023-04-24T12:48:28;19.80;82.50
16229;DHT22;8222;51.462;12.630;2023-04-24T12:51:02;19.80;82.20
16229;DHT22;8222;51.462;12.630;2023-04-24T12:53:28;19.90;78.70
16229;DHT22;8222;51.462;12.630;2023-04-24T12:55:57;20.00;78.50
16229;DHT22;8222;51.462;12.630;2023-04-24T12:58:25;20.10;78.60
16229;DHT22;8222;51.462;12.630;2023-04-24T13:00:51;20.10;79.70
16229;DHT22;8222;51.462;12.630;2023-04-24T13:03:17;20.00;80.40
16229;DHT22;8222;51.462;12.630;2023-04-24T13:05:45;19.90;84.30
16229;DHT22;8222;51.462;12.630;2023-04-24T13:08:11;19.80;81.40
16229;DHT22;8222;51.462;12.630;2023-04-24T13:10:41;19.80;85.90
16229;DHT22;8222;51.462;12.630;2023-04-24T13:13:07;19.60;84.60
16229;DHT22;8222;51.462;12.630;2023-04-24T13:15:35;19.30;82.90
16229;DHT22;8222;51.462;12.630;2023-04-24T13:18:01;19.30;82.10
16229;DHT22;8222;51.462;12.630;2023-04-24T13:20:27;19.70;85.90
16229;DHT22;8222;51.462;12.630;2023-04-24T13:22:55;20.00;80.60
16229;DHT22;8222;51.462;12.630;2023-04-24T13:25:21;20.00;80.20
16229;DHT22;8222;51.462;12.630;2023-04-24T13:27:51;20.00;76.30
16229;DHT22;8222;51.462;12.630;2023-04-24T13:30:19;19.80;76.60
16229;DHT22;8222;51.462;12.630;2023-04-24T13:32:45;19.90;77.30
16229;DHT22;8222;51.462;12.630;2023-04-24T13:35:13;20.00;76.40
16229;DHT22;8222;51.462;12.630;2023-04-24T13:37:41;19.90;74.90
16229;DHT22;8222;51.462;12.630;2023-04-24T13:40:09;19.70;72.70
16229;DHT22;8222;51.462;12.630;2023-04-24T13:42:37;20.00;73.00
16229;DHT22;8222;51.462;12.630;2023-04-24T13:45:06;19.80;72.70
16229;DHT22;8222;51.462;12.630;2023-04-24T13:47:32;19.90;73.90
16229;DHT22;8222;51.462;12.630;2023-04-24T13:49:57;19.80;74.00
16229;DHT22;8222;51.462;12.630;2023-04-24T13:52:23;19.70;77.00
16229;DHT22;8222;51.462;12.630;2023-04-24T13:54:51;19.60;79.10
16229;DHT22;8222;51.462;12.630;2023-04-24T13:57:16;19.70;79.70
16229;DHT22;8222;51.462;12.630;2023-04-24T13:59:45;19.60;81.10
16229;DHT22;8222;51.462;12.630;2023-04-24T14:02:16;19.40;77.80
16229;DHT22;8222;51.462;12.630;2023-04-24T14:04:47;19.10;77.40
16229;DHT22;8222;51.462;12.630;2023-04-24T14:07:13;19.20;80.20
16229;DHT22;8222;51.462;12.630;2023-04-24T14:09:41;19.10;82.00
16229;DHT22;8222;51.462;12.630;2023-04-24T14:12:07;19.00;82.50
16229;DHT22;8222;51.462;12.630;2023-04-24T14:14:35;18.90;83.20
16229;DHT22;8222;51.462;12.630;2023-04-24T14:17:01;18.90;81.20
16229;DHT22;8222;51.462;12.630;2023-04-24T14:19:29;18.80;83.90
16229;DHT22;8222;51.462;12.630;2023-04-24T14:21:55;18.90;83.10
16229;DHT22;8222;51.462;12.630;2023-04-24T14:24:22;18.80;85.10
16229;DHT22;8222;51.462;12.630;2023-04-24T14:26:50;18.70;85.60
16229;DHT22;8222;51.462;12.630;2023-04-24T14:29:15;18.80;89.00
16229;DHT22;8222;51.462;12.630;2023-04-24T14:31:42;18.60;88.20
16229;DHT22;8222;51.462;12.630;2023-04-24T14:34:08;18.70;89.30
16229;DHT22;8222;51.462;12.630;2023-04-24T14:36:34;18.90;90.40
16229;DHT22;8222;51.462;12.630;2023-04-24T14:39:00;19.00;88.90
16229;DHT22;8222;51.462;12.630;2023-04-24T14:41:30;19.10;86.80
16229;DHT22;8222;51.462;12.630;2023-04-24T14:44:01;19.30;86.80
16229;DHT22;8222;51.462;12.630;2023-04-24T14:46:28;19.40;85.90
16229;DHT22;8222;51.462;12.630;2023-04-24T14:48:56;19.40;84.60
16229;DHT22;8222;51.462;12.630;2023-04-24T14:51:24;19.00;86.70
16229;DHT22;8222;51.462;12.630;2023-04-24T14:53:51;18.80;88.00
16229;DHT22;8222;51.462;12.630;2023-04-24T14:56:17;18.60;89.10
16229;DHT22;8222;51.462;12.630;2023-04-24T14:58:45;18.70;90.30
16229;DHT22;8222;51.462;12.630;2023-04-24T15:01:11;18.50;89.50
16229;DHT22;8222;51.462;12.630;2023-04-24T15:03:36;18.40;88.40
16229;DHT22;8222;51.462;12.630;2023-04-24T15:06:02;18.40;90.90
16229;DHT22;8222;51.462;12.630;2023-04-24T15:08:30;18.20;90.60
16229;DHT22;8222;51.462;12.630;2023-04-24T15:10:56;18.50;92.20
16229;DHT22;8222;51.462;12.630;2023-04-24T15:13:24;18.60;93.00
16229;DHT22;8222;51.462;12.630;2023-04-24T15:15:50;18.40;93.60
16229;DHT22;8222;51.462;12.630;2023-04-24T15:18:16;18.20;95.30
16229;DHT22;8222;51.462;12.630;2023-04-24T15:20:45;18.10;96.40
16229;DHT22;8222;51.462;12.630;2023-04-24T15:23:13;18.10;99.60
16229;DHT22;8222;51.462;12.630;2023-04-24T15:25:43;17.80;99.90
16229;DHT22;8222;51.462;12.630;2023-04-24T15:28:12;17.50;99.90
16229;DHT22;8222;51.462;12.630;2023-04-24T15:30:37;17.50;99.90
16229;DHT22;8222;51.462;12.630;2023-04-24T15:33:03;17.90;99.90
16229;DHT22;8222;51.462;12.630;2023-04-24T15:35:29;17.90;99.90
16229;DHT22;8222;51.462;12.630;2023-04-24T15:37:55;17.70;99.90
16229;DHT22;8222;51.462;12.630;2023-04-24T15:40:21;18.00;99.90
16229;DHT22;8222;51.462;12.630;2023-04-24T15:42:47;18.30;99.90
16229;DHT22;8222;51.462;12.630;2023-04-24T15:45:13;18.60;99.90
16229;DHT22;8222;51.462;12.630;2023-04-24T15:47:41;18.60;98.30